Time;durP1;ratioP1;P1;durP2;ratioP2;P2;SDS_P1;SDS_P2;PMS_P1;PMS_P2;Temp;Humidity;BMP_temperature;BMP_pressure;BME280_temperature;BME280_humidity;BME280_pressure;Samples;Min_cycle;Max_cycle;Signal;HPM_P1;HPM_P2
2022/05/01 00:02:20;;;;;;;;;27.60;25.60;;;;;13.81;41.43;99222.88;6270665;27;96540;-74
2022/05/01 00:05:23;;;;;;;;;26.00;25.00;;;;;13.77;41.09;99221.72;6288180;27;97499;-75
2022/05/01 00:08:27;;;;;;;;;24.20;22.20;;;;;13.73;41.48;99214.28;6270019;27;98407;-74
2022/05/01 00:11:32;;;;;;;;;26.20;24.00;;;;;13.73;41.16;99215.06;6270454;27;98160;-74
2022/05/01 00:14:36;;;;;;;;;24.75;22.75;;;;;13.66;41.16;99216.25;6288854;27;96390;-75
2022/05/01 00:17:39;;;;;;;;;26.40;24.40;;;;;13.70;41.24;99212.03;6285390;27;97140;-75
2022/05/01 00:20:43;;;;;;;;;27.00;25.00;;;;;13.69;41.15;99207.66;6270587;27;96905;-74
2022/05/01 00:23:46;;;;;;;;;32.67;28.00;;;;;13.70;41.04;99212.03;6269917;27;96989;-74
2022/05/01 00:26:51;;;;;;;;;25.40;23.20;;;;;13.71;41.16;99200.97;6303685;27;96462;-74
2022/05/01 00:29:56;;;;;;;;;25.00;24.00;;;;;13.73;41.04;99201.53;6313837;27;96783;-74
2022/05/01 00:36:27;;;;;;;;;33.60;31.00;;;;;13.60;40.90;99185.50;6281819;27;98387;-74
2022/05/01 00:39:30;;;;;;;;;37.40;31.20;;;;;13.85;40.69;99212.41;6286803;27;97078;-74
2022/05/01 00:42:35;;;;;;;;;37.00;32.00;;;;;13.93;40.58;99203.09;6288827;27;97588;-74
2022/05/01 00:45:38;;;;;;;;;36.25;32.00;;;;;13.98;40.90;99205.91;6293389;27;98650;-73
2022/05/01 00:48:42;;;;;;;;;38.50;31.00;;;;;13.88;40.88;99190.22;6291468;27;96730;-73
2022/05/01 00:51:48;;;;;;;;;36.60;31.60;;;;;13.98;41.33;99200.47;6313551;27;97527;-74
2022/05/01 00:54:52;;;;;;;;;31.00;29.20;;;;;13.80;41.96;99214.97;6299649;27;97279;-74
2022/05/01 00:57:57;;;;;;;;;31.75;26.75;;;;;13.72;41.82;99216.16;6294902;27;97313;-75
2022/05/01 01:01:00;;;;;;;;;27.00;24.80;;;;;13.59;42.11;99212.81;6294603;27;97985;-74
2022/05/01 01:04:04;;;;;;;;;25.00;21.40;;;;;13.00;43.13;99153.09;6294754;27;98917;-74
2022/05/01 01:07:08;;;;;;;;;23.00;20.67;;;;;13.25;42.67;99206.28;6300586;27;97056;-74
2022/05/01 01:10:11;;;;;;;;;22.80;19.20;;;;;13.18;43.00;99200.16;6291134;27;96433;-74
2022/05/01 01:13:16;;;;;;;;;24.00;22.60;;;;;13.03;43.44;99190.53;6294415;27;98355;-74
2022/05/01 01:16:20;;;;;;;;;25.00;22.00;;;;;13.13;43.33;99198.13;6293504;27;97458;-74
2022/05/01 01:19:23;;;;;;;;;22.00;20.40;;;;;13.05;43.46;99203.03;6276486;27;97942;-74
2022/05/01 01:22:29;;;;;;;;;23.00;22.00;;;;;12.82;43.84;99182.09;6276757;27;98538;-74
2022/05/01 01:25:33;;;;;;;;;24.40;21.40;;;;;12.84;43.94;99199.75;6277203;27;96938;-74
2022/05/01 01:28:38;;;;;;;;;22.00;20.00;;;;;12.81;43.79;99189.38;6276587;27;97735;-74
2022/05/01 01:31:41;;;;;;;;;23.00;22.00;;;;;12.92;44.25;99202.13;6293778;27;98557;-74
2022/05/01 01:34:45;;;;;;;;;25.40;24.00;;;;;12.91;44.25;99196.94;6271360;27;99204;-73
2022/05/01 01:37:51;;;;;;;;;24.40;23.00;;;;;12.84;44.03;99190.81;6309899;27;97522;-74
2022/05/01 01:40:56;;;;;;;;;25.00;23.20;;;;;12.89;44.31;99201.78;6293526;27;97671;-74
2022/05/01 01:44:00;;;;;;;;;27.00;24.00;;;;;12.75;44.23;99182.19;6312864;27;96419;-74
2022/05/01 01:47:05;;;;;;;;;25.20;22.00;;;;;12.87;44.19;99191.16;6289083;27;97452;-74
2022/05/01 01:50:10;;;;;;;;;25.00;22.00;;;;;12.92;43.91;99201.31;6274022;27;99702;-74
2022/05/01 01:53:15;;;;;;;;;26.00;23.00;;;;;12.94;44.13;99208.16;6268624;27;96277;-74
2022/05/01 01:56:18;;;;;;;;;24.25;22.25;;;;;12.93;44.27;99202.97;6268492;27;96798;-73
2022/05/01 01:59:22;;;;;;;;;31.00;28.00;;;;;12.96;43.91;99199.78;6276053;27;99756;-73
2022/05/01 02:02:25;;;;;;;;;27.80;24.40;;;;;12.99;43.96;99199.34;6276063;27;100163;-74
2022/05/01 02:05:29;;;;;;;;;28.40;23.40;;;;;12.99;44.25;99199.34;6312404;27;96491;-74
2022/05/01 02:08:35;;;;;;;;;30.20;29.00;;;;;13.01;43.92;99189.09;6293436;27;97103;-74
2022/05/01 02:11:38;;;;;;;;;26.00;24.00;;;;;13.04;43.94;99183.25;6292531;27;98189;-74
2022/05/01 02:14:44;;;;;;;;;31.50;27.00;;;;;12.70;43.64;99127.94;6289050;27;98171;-74
2022/05/01 02:17:48;;;;;;;;;28.60;26.00;;;;;13.08;43.69;99189.00;6284027;27;98370;-74
2022/05/01 02:24:13;;;;;;;;;30.00;27.00;;;;;13.10;43.45;99192.28;6268474;27;98151;-75
2022/05/01 02:27:17;;;;;;;;;35.60;30.00;;;;;13.08;43.83;99192.56;6293945;27;98333;-74
2022/05/01 02:30:20;;;;;;;;;29.20;25.60;;;;;13.06;43.86;99188.41;6297767;27;96877;-74
2022/05/01 02:33:25;;;;;;;;;29.60;28.00;;;;;12.91;44.23;99162.59;6315440;27;96365;-74
2022/05/01 02:36:28;;;;;;;;;33.40;28.40;;;;;13.00;44.29;99179.31;6297413;27;96625;-74
2022/05/01 02:39:33;;;;;;;;;28.00;26.00;;;;;12.98;44.20;99187.69;6311796;27;96780;-74
2022/05/01 02:42:36;;;;;;;;;31.80;30.00;;;;;12.97;43.90;99175.22;6315886;27;97141;-75
2022/05/01 02:45:40;;;;;;;;;34.25;32.00;;;;;12.93;44.11;99184.03;6280299;27;98066;-75
2022/05/01 02:48:44;;;;;;;;;33.20;28.80;;;;;12.92;44.10;99185.91;6280108;27;96908;-75
2022/05/01 02:51:47;;;;;;;;;32.40;29.40;;;;;12.91;43.90;99183.41;6315789;27;97441;-75
2022/05/01 02:54:52;;;;;;;;;34.40;30.40;;;;;12.92;43.82;99185.06;6293515;27;99488;-73
2022/05/01 02:57:55;;;;;;;;;33.00;30.00;;;;;12.90;44.01;99184.50;6296388;27;97849;-74
2022/05/01 03:00:59;;;;;;;;;35.60;30.00;;;;;12.88;43.81;99187.41;6296569;27;96706;-74
2022/05/01 03:04:03;;;;;;;;;34.60;30.00;;;;;12.84;44.14;99188.94;6299406;27;97043;-74
2022/05/01 03:07:07;;;;;;;;;33.00;29.75;;;;;12.73;43.62;99169.94;6276866;27;96679;-74
2022/05/01 03:10:12;;;;;;;;;34.00;30.50;;;;;12.85;43.73;99179.72;6294182;27;98480;-74
2022/05/01 03:13:14;;;;;;;;;36.00;32.00;;;;;11.83;43.89;99017.63;6275528;27;97358;-74
2022/05/01 03:16:18;;;;;;;;;36.00;30.50;;;;;12.81;44.09;99188.53;6292126;27;97272;-74
2022/05/01 03:22:43;;;;;;;;;34.20;30.20;;;;;12.78;43.95;99176.31;6288255;27;97416;-74
2022/05/01 03:25:48;;;;;;;;;35.00;30.40;;;;;12.76;43.97;99180.28;6310363;27;96667;-74
2022/05/01 03:28:52;;;;;;;;;33.40;31.20;;;;;12.76;44.17;99180.28;6287555;27;96860;-75
2022/05/01 03:31:55;;;;;;;;;41.60;34.00;;;;;12.77;44.08;99173.81;6310939;27;97490;-74
2022/05/01 03:34:59;;;;;;;;;37.50;32.50;;;;;12.75;44.20;99186.78;6296182;27;96633;-74
2022/05/01 03:38:03;;;;;;;;;36.40;32.60;;;;;12.72;44.56;99176.38;6314594;27;97052;-74
2022/05/01 03:41:10;;;;;;;;;33.00;30.00;;;;;12.67;44.38;99177.06;6269210;27;97708;-74
2022/05/01 03:44:14;;;;;;;;;37.50;32.00;;;;;12.64;44.38;99182.94;6279789;27;96987;-73
2022/05/01 03:47:17;;;;;;;;;40.60;33.00;;;;;12.57;44.47;99183.03;6292004;27;96956;-74
2022/05/01 03:50:21;;;;;;;;;35.33;30.33;;;;;12.55;44.58;99187.03;6314391;27;96595;-73
2022/05/01 03:53:25;;;;;;;;;37.00;32.00;;;;;12.61;44.70;99182.59;6278031;27;98739;-74
2022/05/01 03:56:30;;;;;;;;;36.00;31.00;;;;;12.68;44.53;99186.03;6279173;27;96675;-74
2022/05/01 03:59:33;;;;;;;;;37.75;33.00;;;;;12.76;44.23;99183.81;6265222;27;98378;-74
2022/05/01 04:02:42;;;;;;;;;37.60;31.80;;;;;12.77;44.54;99181.94;6312163;27;97473;-74
2022/05/01 04:05:46;;;;;;;;;36.25;32.00;;;;;12.85;44.46;99185.16;6295630;27;96951;-74
2022/05/01 04:08:50;;;;;;;;;39.50;32.00;;;;;12.93;44.35;99178.59;6280880;27;97410;-74
2022/05/01 04:11:54;;;;;;;;;39.00;33.00;;;;;12.77;44.27;99153.00;6271071;27;97729;-74
2022/05/01 04:14:59;;;;;;;;;39.60;32.80;;;;;13.03;44.42;99166.19;6294230;27;97006;-74
2022/05/01 04:18:02;;;;;;;;;37.40;31.40;;;;;13.10;44.53;99170.66;6283335;27;98515;-74
2022/05/01 04:21:07;;;;;;;;;37.25;31.00;;;;;13.37;44.77;99189.00;6268895;27;98836;-74
2022/05/01 04:24:10;;;;;;;;;37.20;32.60;;;;;13.50;44.52;99184.44;6261517;27;97353;-74
2022/05/01 04:27:15;;;;;;;;;37.40;33.00;;;;;13.65;44.07;99180.22;6262650;27;96813;-74
2022/05/01 04:30:20;;;;;;;;;39.40;33.00;;;;;13.83;43.46;99174.69;6281553;27;97552;-74
2022/05/01 04:33:24;;;;;;;;;38.00;33.00;;;;;14.07;42.29;99190.97;6272693;27;99334;-74
2022/05/01 04:36:27;;;;;;;;;38.40;31.40;;;;;14.30;41.18;99199.06;6247933;27;100019;-74
2022/05/01 04:39:30;;;;;;;;;37.00;32.00;;;;;14.52;40.53;99196.56;6265491;27;97178;-74
2022/05/01 04:42:35;;;;;;;;;32.20;30.00;;;;;14.73;39.86;99196.75;6278435;27;98780;-74
2022/05/01 04:45:41;;;;;;;;;40.00;33.00;;;;;14.95;39.93;99196.09;6271971;27;98412;-74
2022/05/01 04:48:45;;;;;;;;;36.20;32.00;;;;;15.09;39.93;99192.00;6278394;27;97897;-74
2022/05/01 04:51:48;;;;;;;;;39.60;32.00;;;;;15.15;38.26;99193.72;6271705;27;97236;-74
2022/05/01 04:54:52;;;;;;;;;39.00;32.00;;;;;15.25;37.90;99195.84;6278983;27;96815;-74
2022/05/01 04:57:57;;;;;;;;;40.00;33.40;;;;;15.35;37.85;99191.38;6260150;27;97128;-75
2022/05/01 05:01:00;;;;;;;;;43.00;35.00;;;;;15.36;37.88;99187.59;6291038;27;97589;-74
2022/05/01 05:04:05;;;;;;;;;44.80;35.80;;;;;15.38;37.04;99185.47;6282647;27;97012;-74
2022/05/01 05:07:09;;;;;;;;;45.60;35.00;;;;;15.53;37.25;99183.06;6243155;27;99099;-75
2022/05/01 05:10:12;;;;;;;;;45.00;36.00;;;;;15.54;37.46;99165.66;6243656;27;98538;-75
2022/05/01 05:13:22;;;;;;;;;46.00;37.00;;;;;15.79;37.04;99183.44;6243837;27;96799;-75
2022/05/01 05:16:28;;;;;;;;;45.40;37.60;;;;;15.99;37.14;99190.00;6281688;27;97025;-74
2022/05/01 05:19:32;;;;;;;;;46.80;37.00;;;;;16.05;36.85;99190.91;6312757;27;96724;-75
2022/05/01 05:22:35;;;;;;;;;42.80;35.40;;;;;16.19;36.94;99200.38;6312082;27;96934;-75
2022/05/01 05:25:39;;;;;;;;;43.60;35.00;;;;;16.32;36.80;99197.28;6303537;27;97070;-74
2022/05/01 05:28:44;;;;;;;;;40.00;33.00;;;;;16.48;36.26;99203.75;6287989;27;96704;-74
2022/05/01 05:31:47;;;;;;;;;41.60;33.00;;;;;16.68;35.85;99204.06;6304062;27;98656;-75
2022/05/01 05:34:51;;;;;;;;;41.00;35.00;;;;;16.83;35.75;99200.69;6287865;27;97494;-74
2022/05/01 05:37:55;;;;;;;;;36.00;32.67;;;;;16.90;35.22;99204.06;6303729;27;97109;-75
2022/05/01 05:40:58;;;;;;;;;40.00;33.40;;;;;16.92;35.21;99184.72;6281009;27;97603;-75
2022/05/01 05:44:04;;;;;;;;;42.00;34.00;;;;;17.24;35.00;99215.59;6270039;27;98403;-75
2022/05/01 05:47:07;;;;;;;;;42.20;34.60;;;;;17.37;34.30;99217.06;6307352;27;97344;-73
2022/05/01 05:50:11;;;;;;;;;35.20;31.80;;;;;17.49;34.37;99224.03;6308541;27;96658;-74
2022/05/01 05:53:14;;;;;;;;;39.00;34.00;;;;;17.59;34.14;99213.22;6290058;27;97859;-74
2022/05/01 05:56:18;;;;;;;;;39.40;33.00;;;;;17.57;34.89;99187.28;6271924;27;98339;-74
2022/05/01 05:59:23;;;;;;;;;42.00;35.00;;;;;18.01;33.88;99226.94;6290325;27;99852;-74
2022/05/01 06:02:26;;;;;;;;;41.25;34.50;;;;;18.12;34.16;99228.66;6306426;27;97382;-74
2022/05/01 06:05:30;;;;;;;;;44.60;36.00;;;;;18.22;33.54;99225.19;6278079;27;97042;-74
2022/05/01 06:08:35;;;;;;;;;38.20;33.00;;;;;18.32;33.55;99227.97;6310780;27;97313;-74
2022/05/01 06:11:39;;;;;;;;;40.60;35.00;;;;;18.50;33.41;99233.00;6287861;27;98308;-74
2022/05/01 06:14:44;;;;;;;;;37.00;32.00;;;;;18.63;32.67;99230.88;6295939;27;99126;-74
2022/05/01 06:17:49;;;;;;;;;41.40;33.40;;;;;18.85;33.01;99231.53;6290391;27;98437;-74
2022/05/01 06:20:53;;;;;;;;;38.00;32.20;;;;;18.81;32.79;99227.72;6296539;27;96758;-75
2022/05/01 06:24:01;;;;;;;;;40.20;35.00;;;;;18.85;32.88;99228.81;6309500;27;97030;-74
2022/05/01 06:27:05;;;;;;;;;41.00;35.00;;;;;18.96;33.36;99228.56;6287954;27;97241;-74
2022/05/01 06:30:11;;;;;;;;;45.60;36.60;;;;;19.09;32.99;99227.25;6295634;27;97098;-74
2022/05/01 06:33:18;;;;;;;;;43.00;36.00;;;;;19.30;32.39;99233.63;6311109;27;96797;-74
2022/05/01 06:36:22;;;;;;;;;44.20;36.00;;;;;19.46;32.01;99238.84;6291164;27;99460;-75
2022/05/01 06:39:25;;;;;;;;;45.40;36.00;;;;;19.49;32.02;99240.25;6295640;27;98107;-76
2022/05/01 06:42:30;;;;;;;;;47.00;36.00;;;;;19.56;32.58;99232.56;6275490;27;97112;-74
2022/05/01 06:45:34;;;;;;;;;43.80;37.40;;;;;19.73;32.79;99211.28;6311028;27;96903;-76
2022/05/01 06:48:37;;;;;;;;;47.20;38.00;;;;;20.08;31.84;99220.56;6314170;27;96393;-76
2022/05/01 06:51:41;;;;;;;;;43.20;36.00;;;;;20.36;31.54;99230.94;6277595;27;98314;-74
2022/05/01 06:54:44;;;;;;;;;41.40;33.40;;;;;20.72;30.88;99232.47;6294425;27;99031;-75
2022/05/01 06:57:48;;;;;;;;;42.80;36.00;;;;;21.09;30.83;99239.44;6296228;27;97305;-75
2022/05/01 07:00:53;;;;;;;;;46.00;35.20;;;;;21.27;30.08;99236.09;6270377;27;98416;-75
2022/05/01 07:03:56;;;;;;;;;40.00;34.60;;;;;21.47;30.24;99227.75;6294314;27;97820;-74
2022/05/01 07:07:00;;;;;;;;;39.60;34.40;;;;;21.95;29.47;99242.50;6302363;27;97586;-74
2022/05/01 07:10:04;;;;;;;;;39.60;33.00;;;;;22.02;29.09;99204.56;6288113;27;98650;-75
2022/05/01 07:13:09;;;;;;;;;34.20;31.20;;;;;21.84;27.83;99223.63;6289585;27;98727;-75
2022/05/01 07:16:14;;;;;;;;;36.80;31.60;;;;;22.12;28.04;99231.09;6264956;27;97288;-74
2022/05/01 07:19:17;;;;;;;;;37.00;33.00;;;;;22.43;28.89;99234.38;6295571;27;97477;-75
2022/05/01 07:22:21;;;;;;;;;36.60;31.00;;;;;22.78;28.53;99230.41;6302998;27;97074;-74
2022/05/01 07:25:24;;;;;;;;;41.00;33.00;;;;;22.88;27.28;99242.13;6295168;27;99588;-74
2022/05/01 07:28:27;;;;;;;;;38.60;32.00;;;;;22.93;27.24;99230.25;6295592;27;98800;-75
2022/05/01 07:31:32;;;;;;;;;42.40;35.00;;;;;22.92;27.67;99214.84;6295790;27;97532;-75
2022/05/01 07:34:36;;;;;;;;;40.25;32.00;;;;;22.99;27.37;99231.81;6288063;27;97055;-75
2022/05/01 07:37:39;;;;;;;;;38.50;33.00;;;;;23.21;26.54;99232.06;6272815;27;98628;-74
2022/05/01 07:40:42;;;;;;;;;41.00;34.50;;;;;23.39;27.46;99229.63;6290315;27;100127;-75
2022/05/01 07:43:45;;;;;;;;;40.00;33.00;;;;;23.68;28.09;99230.31;6289367;27;97492;-75
2022/05/01 07:46:51;;;;;;;;;38.40;33.40;;;;;24.04;27.45;99225.84;6312449;27;97420;-75
2022/05/01 07:49:54;;;;;;;;;39.20;32.60;;;;;24.32;26.90;99221.28;6294062;27;98379;-76
2022/05/01 07:52:57;;;;;;;;;43.00;33.40;;;;;24.46;26.54;99224.88;6269563;27;97009;-74
2022/05/01 07:56:01;;;;;;;;;37.40;32.00;;;;;24.75;25.76;99221.81;6288635;27;98141;-73
2022/05/01 07:59:04;;;;;;;;;34.60;30.80;;;;;24.67;24.96;99224.47;6312570;27;97120;-74
2022/05/01 08:02:09;;;;;;;;;39.60;35.00;;;;;24.73;26.37;99206.72;6312561;27;96769;-74
2022/05/01 08:05:11;;;;;;;;;38.75;32.00;;;;;25.18;26.16;99230.59;6295006;27;96638;-74
2022/05/01 08:08:15;;;;;;;;;39.50;33.00;;;;;25.29;24.81;99223.72;6313652;27;96910;-74
2022/05/01 08:11:18;;;;;;;;;32.00;30.00;;;;;25.32;24.37;99206.53;6312618;27;96938;-74
2022/05/01 08:14:22;;;;;;;;;35.00;30.00;;;;;25.46;25.13;99209.28;6295957;27;97185;-73
2022/05/01 08:17:27;;;;;;;;;32.00;29.00;;;;;25.51;23.95;99211.13;6286457;27;96903;-74
2022/05/01 08:23:51;;;;;;;;;33.60;28.40;;;;;25.58;23.52;99206.81;6279746;27;96937;-74
2022/05/01 08:26:55;;;;;;;;;29.00;26.60;;;;;25.46;23.78;99195.47;6284896;27;97433;-74
2022/05/01 08:29:58;;;;;;;;;28.00;26.60;;;;;25.60;23.41;99203.75;6280332;27;98352;-73
2022/05/01 08:33:04;;;;;;;;;30.00;26.20;;;;;26.00;23.94;99201.94;6286781;27;97506;-74
2022/05/01 08:36:08;;;;;;;;;23.25;22.25;;;;;26.38;23.31;99189.31;6280613;27;98409;-75
2022/05/01 08:39:11;;;;;;;;;27.40;24.00;;;;;26.92;22.93;99187.28;6282102;27;96658;-74
2022/05/01 08:42:14;;;;;;;;;25.00;23.00;;;;;27.27;22.81;99172.31;6281509;27;97133;-75
2022/05/01 08:45:25;;;;;;;;;25.40;24.20;;;;;27.76;22.39;99184.88;6283384;27;96383;-75
2022/05/01 08:48:46;;;;;;;;;30.00;24.60;;;;;28.15;21.83;99185.84;6282961;27;96626;-75
2022/05/01 08:51:50;;;;;;;;;24.40;22.00;;;;;28.52;21.75;99187.84;6284369;27;96467;-75
2022/05/01 08:54:54;;;;;;;;;27.00;25.00;;;;;28.77;20.62;99178.63;6279793;27;100013;-75
2022/05/01 08:58:00;;;;;;;;;26.75;24.75;;;;;28.95;19.99;99176.53;6274027;27;99237;-75
2022/05/01 09:01:03;;;;;;;;;24.00;21.00;;;;;29.04;19.98;99180.06;6261120;27;97168;-75
2022/05/01 09:04:09;;;;;;;;;21.40;20.00;;;;;28.93;19.45;99151.06;6261868;27;98004;-74
2022/05/01 09:07:15;;;;;;;;;23.20;20.00;;;;;28.54;19.42;99165.31;6266738;27;97393;-77
2022/05/01 09:10:21;;;;;;;;;20.60;19.60;;;;;28.61;20.71;99166.41;6285933;27;98427;-77
2022/05/01 09:13:25;;;;;;;;;16.40;15.40;;;;;28.77;18.83;99166.69;6287525;27;97555;-75
2022/05/01 09:16:28;;;;;;;;;15.80;13.80;;;;;28.65;20.39;99161.00;6287127;27;96403;-79
2022/05/01 09:19:33;;;;;;;;;13.60;13.00;;;;;28.98;19.45;99150.88;6294694;27;99600;-74
2022/05/01 09:22:50;;;;;;;;;15.00;13.80;;;;;29.12;18.35;99165.34;6313063;27;96600;-77
2022/05/01 09:25:59;;;;;;;;;12.00;11.75;;;;;28.92;18.22;99166.13;6294727;27;96725;-77
2022/05/01 09:29:03;;;;;;;;;12.40;12.00;;;;;29.28;19.03;99165.53;6294344;27;96509;-76
2022/05/01 09:32:07;;;;;;;;;11.00;11.00;;;;;29.32;17.50;99160.16;6311939;27;97312;-76
2022/05/01 09:35:23;;;;;;;;;11.20;10.20;;;;;29.34;18.60;99155.06;6293248;27;98374;-77
2022/05/01 09:38:27;;;;;;;;;14.00;13.00;;;;;29.60;18.43;99161.22;6281495;27;98431;-75
2022/05/01 09:41:31;;;;;;;;;13.75;12.00;;;;;29.34;17.88;99158.66;6317258;27;97403;-77
2022/05/01 09:44:34;;;;;;;;;10.20;10.00;;;;;29.32;17.86;99152.66;6317101;27;97582;-76
2022/05/01 09:47:39;;;;;;;;;14.60;12.60;;;;;29.78;18.69;99154.34;6317139;27;98003;-76
2022/05/01 09:50:45;;;;;;;;;13.00;11.20;;;;;30.20;18.46;99149.53;6298664;27;97498;-76
2022/05/01 09:53:49;;;;;;;;;12.00;12.00;;;;;30.46;18.10;99146.44;6276329;27;98344;-76
2022/05/01 09:56:54;;;;;;;;;13.20;12.00;;;;;30.75;18.35;99140.63;6273112;27;97477;-76
2022/05/01 09:59:57;;;;;;;;;16.25;15.25;;;;;30.94;17.93;99143.63;6296840;27;96954;-75
2022/05/01 10:03:01;;;;;;;;;14.75;14.75;;;;;31.12;17.57;99141.44;6298422;27;97042;-76
2022/05/01 10:06:09;;;;;;;;;16.00;15.00;;;;;31.07;17.13;99130.56;6290078;27;99045;-76
2022/05/01 10:09:13;;;;;;;;;16.50;15.00;;;;;31.08;18.41;99120.22;6298490;27;96596;-75
2022/05/01 10:12:18;;;;;;;;;17.75;15.25;;;;;30.89;17.00;99129.13;6280514;27;97760;-74
2022/05/01 10:15:21;;;;;;;;;19.40;18.40;;;;;30.89;17.97;99127.16;6315786;27;97084;-76
2022/05/01 10:18:25;;;;;;;;;15.00;14.00;;;;;30.84;18.18;99127.41;6297476;27;96808;-75
2022/05/01 10:21:33;;;;;;;;;18.00;17.00;;;;;30.66;17.24;99122.44;6315434;27;96745;-75
2022/05/01 10:24:37;;;;;;;;;16.00;16.00;;;;;30.51;16.92;99116.41;6278834;27;98742;-76
2022/05/01 10:27:49;;;;;;;;;17.00;15.00;;;;;30.52;18.80;99125.59;6294604;27;97109;-76
2022/05/01 10:34:44;;;;;;;;;19.00;15.00;;;;;30.21;18.61;99095.50;6312145;27;97058;-75
2022/05/01 10:38:05;;;;;;;;;15.00;14.00;;;;;29.83;17.34;99072.72;6290367;27;97216;-75
2022/05/01 10:41:11;;;;;;;;;18.60;16.60;;;;;29.66;17.38;99099.53;6278069;27;99155;-76
2022/05/01 10:44:29;;;;;;;;;16.00;15.00;;;;;29.44;17.19;99099.91;6296710;27;97834;-76
2022/05/01 10:47:37;;;;;;;;;15.60;15.60;;;;;29.59;18.06;99076.25;6314425;27;97485;-75
2022/05/01 10:50:40;;;;;;;;;18.00;16.75;;;;;29.81;18.59;99095.28;6311991;27;96405;-75
2022/05/01 10:54:24;;;;;;;;;19.00;18.00;;;;;29.32;18.42;99091.56;6293125;27;97551;-75
2022/05/01 10:57:28;;;;;;;;;19.67;17.00;;;;;29.27;18.80;99086.16;6290475;27;100139;-76
2022/05/01 11:00:31;;;;;;;;;15.20;14.60;;;;;29.67;19.30;99086.44;6311604;27;97031;-75
2022/05/01 11:03:35;;;;;;;;;14.00;13.50;;;;;29.56;17.93;99091.66;6311186;27;96712;-75
2022/05/01 11:06:41;;;;;;;;;15.40;14.00;;;;;29.63;18.15;99077.19;6278130;27;97033;-76
2022/05/01 11:09:48;;;;;;;;;13.80;13.00;;;;;30.00;18.82;99072.56;6295055;27;98094;-75
2022/05/01 11:12:54;;;;;;;;;11.80;11.20;;;;;30.54;17.64;99068.41;6294268;27;97434;-76
2022/05/01 11:15:58;;;;;;;;;12.00;11.00;;;;;30.23;17.38;99078.47;6289793;27;96348;-75
2022/05/01 11:19:01;;;;;;;;;14.00;12.00;;;;;30.14;16.85;99075.81;6276011;27;96955;-75
2022/05/01 11:22:08;;;;;;;;;12.00;11.00;;;;;30.39;17.96;99071.06;6315187;27;96724;-75
2022/05/01 11:25:18;;;;;;;;;14.00;13.00;;;;;30.60;16.96;99051.47;6315781;27;96337;-75
2022/05/01 11:28:44;;;;;;;;;11.20;10.80;;;;;30.36;16.05;99063.41;6295907;27;98510;-75
2022/05/01 11:31:50;;;;;;;;;14.00;12.00;;;;;29.82;16.81;99059.97;6294047;27;96973;-73
2022/05/01 11:34:54;;;;;;;;;10.00;10.00;;;;;30.25;17.11;99065.06;6277860;27;96965;-75
2022/05/01 11:38:09;;;;;;;;;11.40;11.00;;;;;30.26;16.26;99072.22;6292956;27;96510;-75
2022/05/01 11:41:15;;;;;;;;;10.80;10.00;;;;;30.22;16.90;99062.94;6291265;27;96879;-75
2022/05/01 11:44:23;;;;;;;;;11.60;11.00;;;;;30.22;17.24;99027.59;6294704;27;97907;-74
2022/05/01 11:47:31;;;;;;;;;13.00;11.60;;;;;30.95;17.66;99050.59;6310621;27;97462;-74
2022/05/01 11:50:35;;;;;;;;;10.00;10.00;;;;;31.15;15.92;99050.78;6289271;27;96519;-75
2022/05/01 11:53:40;;;;;;;;;11.25;10.25;;;;;30.52;15.93;99025.41;6288728;27;97066;-75
2022/05/01 12:03:29;;;;;;;;;11.00;11.00;;;;;30.41;17.65;99041.72;6291965;27;96803;-74
2022/05/01 12:06:34;;;;;;;;;10.00;9.00;;;;;30.49;16.90;99032.50;6290295;27;96409;-76
2022/05/01 12:09:39;;;;;;;;;12.00;12.00;;;;;30.30;16.43;99037.78;6257567;27;99410;-76
2022/05/01 12:12:44;;;;;;;;;11.40;10.00;;;;;30.37;17.10;99026.91;6299810;27;96422;-75
2022/05/01 12:15:48;;;;;;;;;10.00;9.60;;;;;30.32;17.48;99029.09;6288874;27;96912;-75
2022/05/01 12:18:52;;;;;;;;;10.00;10.00;;;;;30.24;16.64;99022.53;6302325;27;97509;-76
2022/05/01 12:22:00;;;;;;;;;10.00;9.40;;;;;30.04;17.41;99027.03;6295694;27;98081;-74
2022/05/01 12:25:05;;;;;;;;;12.60;11.00;;;;;29.84;17.47;99035.44;6314573;27;96378;-75
2022/05/01 12:28:15;;;;;;;;;10.00;10.00;;;;;29.58;18.00;99028.19;6314414;27;96493;-76
2022/05/01 12:31:19;;;;;;;;;10.40;9.40;;;;;29.37;18.36;99023.88;6277665;27;100298;-75
2022/05/01 12:34:23;;;;;;;;;11.50;10.50;;;;;28.95;17.75;98987.00;6313897;27;96467;-74
2022/05/01 12:37:32;;;;;;;;;9.40;9.00;;;;;29.04;18.16;99015.47;6294714;27;97688;-75
2022/05/01 12:43:59;;;;;;;;;11.60;11.00;;;;;28.54;17.80;98990.56;6252933;27;99812;-74
2022/05/01 12:47:03;;;;;;;;;12.80;10.80;;;;;28.52;18.53;99009.50;6288406;27;96935;-75
2022/05/01 12:50:10;;;;;;;;;10.00;9.20;;;;;28.36;18.35;99003.72;6312237;27;96542;-74
2022/05/01 12:53:23;;;;;;;;;11.00;8.60;;;;;28.17;18.44;98997.81;6313788;27;98495;-75
2022/05/01 12:56:28;;;;;;;;;10.00;10.00;;;;;28.02;18.53;98999.16;6294199;27;96987;-74
2022/05/01 12:59:33;;;;;;;;;11.00;10.00;;;;;27.91;18.99;98998.72;6287469;27;97669;-75
2022/05/01 13:02:36;;;;;;;;;12.00;12.00;;;;;27.73;18.66;98994.41;6277457;27;98138;-75
2022/05/01 13:05:40;;;;;;;;;12.00;11.00;;;;;27.63;19.08;98993.94;6294499;27;96581;-75
2022/05/01 13:08:44;;;;;;;;;9.00;9.00;;;;;27.42;19.72;98988.28;6266131;27;98567;-75
2022/05/01 13:12:03;;;;;;;;;12.00;10.00;;;;;27.23;18.74;98988.66;6295364;27;97019;-74
2022/05/01 13:15:08;;;;;;;;;12.40;12.40;;;;;26.73;19.43;98994.69;6284155;27;97105;-76
2022/05/01 13:18:12;;;;;;;;;12.00;11.60;;;;;26.52;19.44;98988.19;6268578;27;97790;-74
2022/05/01 13:21:16;;;;;;;;;11.40;10.00;;;;;26.32;20.00;98977.75;6279998;27;96962;-75
2022/05/01 13:24:23;;;;;;;;;13.00;11.60;;;;;26.39;20.45;98983.59;6268883;27;97868;-75
2022/05/01 13:27:26;;;;;;;;;12.50;12.00;;;;;26.32;20.18;98976.94;6278022;27;96675;-75
2022/05/01 13:30:31;;;;;;;;;11.60;11.00;;;;;26.24;20.77;98981.31;6283697;27;97269;-75
2022/05/01 13:33:35;;;;;;;;;12.60;11.60;;;;;26.16;20.18;98976.53;6291719;27;96615;-74
2022/05/01 13:36:39;;;;;;;;;12.00;11.50;;;;;25.96;19.99;98974.38;6293963;27;97263;-75
2022/05/01 13:46:25;;;;;;;;;13.00;12.00;;;;;25.81;20.87;98983.91;6287211;27;96674;-74
2022/05/01 13:49:28;;;;;;;;;12.00;11.20;;;;;25.70;20.18;98974.28;6269292;27;96495;-75
2022/05/01 13:52:32;;;;;;;;;11.25;11.00;;;;;25.52;20.59;98976.13;6286927;27;97904;-76
2022/05/01 13:55:35;;;;;;;;;14.00;13.00;;;;;25.39;20.27;98982.56;6268342;27;96601;-77
2022/05/01 13:58:38;;;;;;;;;12.00;11.00;;;;;25.31;20.44;98986.91;6271506;27;97307;-77
2022/05/01 14:01:43;;;;;;;;;11.00;10.00;;;;;25.27;20.83;98971.28;6250952;27;98535;-74
2022/05/01 14:04:48;;;;;;;;;9.60;9.60;;;;;25.36;21.53;98994.25;6266693;27;98019;-75
2022/05/01 14:07:51;;;;;;;;;14.00;12.75;;;;;25.42;21.06;98984.66;6253665;27;97796;-76
2022/05/01 14:10:54;;;;;;;;;44.40;36.40;;;;;25.42;21.10;98993.78;6292644;27;96524;-74
2022/05/01 14:13:58;;;;;;;;;18.60;16.60;;;;;25.28;20.66;98954.41;6293261;27;97007;-75
2022/05/01 14:17:04;;;;;;;;;13.20;11.00;;;;;25.23;21.22;98953.72;6292978;27;96997;-75
2022/05/01 14:20:08;;;;;;;;;11.00;11.00;;;;;25.52;21.48;98991.88;6274603;27;99443;-75
2022/05/01 14:23:14;;;;;;;;;13.75;12.75;;;;;25.56;21.83;98993.69;6309999;27;96994;-76
2022/05/01 14:26:23;;;;;;;;;11.20;11.20;;;;;25.57;22.92;98978.78;6279774;27;97233;-74
2022/05/01 14:29:26;;;;;;;;;13.00;11.80;;;;;25.56;23.57;98973.59;6297516;27;98162;-76
2022/05/01 14:32:40;;;;;;;;;13.00;12.00;;;;;25.53;23.19;98979.69;6280115;27;99925;-75
2022/05/01 14:35:50;;;;;;;;;11.20;11.00;;;;;25.44;22.99;98991.53;6297333;27;98271;-77
2022/05/01 14:39:04;;;;;;;;;11.50;11.50;;;;;25.41;23.58;98992.13;6288570;27;97747;-76
2022/05/01 14:42:15;;;;;;;;;11.20;11.00;;;;;25.36;22.54;98977.69;6288959;27;96651;-76
2022/05/01 14:45:22;;;;;;;;;13.00;12.00;;;;;25.26;21.71;98977.94;6289470;27;96727;-77